createdAt,value
2023-05-14T00:00:00.968Z,13.56
2023-05-14T00:05:00.820Z,13.91
2023-05-14T00:10:00.488Z,13.91
2023-05-14T00:15:00.567Z,13.91
2023-05-14T00:20:00.517Z,13.97
2023-05-14T00:25:02.935Z,13.97
2023-05-14T00:30:00.539Z,13.97
2023-05-14T00:35:00.608Z,13.97
2023-05-14T00:40:00.491Z,13.97
2023-05-14T00:50:01.279Z,13.73
2023-05-14T00:55:00.546Z,13.73
2023-05-14T01:05:00.844Z,13.73
2023-05-14T01:10:00.727Z,13.73
2023-05-14T01:15:00.545Z,13.73
2023-05-14T01:40:01.226Z,13.97
2023-05-14T01:45:01.082Z,13.97
2023-05-14T01:50:01.423Z,13.97
2023-05-14T01:55:00.803Z,13.97
2023-05-14T02:00:01.457Z,13.97
2023-05-14T02:05:00.706Z,13.97
2023-05-14T02:10:00.752Z,13.97
2023-05-14T02:15:00.664Z,13.97
2023-05-14T02:20:01.190Z,13.97
2023-05-14T02:25:03.457Z,13.97
2023-05-14T02:30:01.339Z,13.97
2023-05-14T02:35:01.062Z,13.96
2023-05-14T02:40:02.610Z,13.96
2023-05-14T02:45:01.279Z,13.96
2023-05-14T02:50:01.677Z,13.96
2023-05-14T02:55:01.221Z,13.96
2023-05-14T03:00:00.863Z,13.96
2023-05-14T03:05:00.668Z,13.96
2023-05-14T03:10:01.768Z,13.96
2023-05-14T03:15:00.725Z,13.96
2023-05-14T03:20:01.499Z,13.96
2023-05-14T03:25:01.695Z,13.98
2023-05-14T03:30:01.450Z,13.98
2023-05-14T03:35:00.897Z,13.98
2023-05-14T03:40:03.468Z,13.98
2023-05-14T03:45:01.304Z,14.21
2023-05-14T03:50:00.768Z,14.21
2023-05-14T03:55:00.768Z,13.67
2023-05-14T04:00:00.761Z,13.67
2023-05-14T04:05:02.412Z,13.67
2023-05-14T04:10:04.234Z,13.67
2023-05-14T04:15:00.718Z,13.74
2023-05-14T04:20:00.939Z,13.74
2023-05-14T04:25:02.913Z,13.74
2023-05-14T04:30:02.492Z,13.74
2023-05-14T04:35:00.805Z,13.74
2023-05-14T04:40:00.862Z,13.74
2023-05-14T04:45:02.677Z,13.74
2023-05-14T04:50:00.740Z,13.74
2023-05-14T04:55:01.061Z,13.74
2023-05-14T05:00:01.917Z,13.74
2023-05-14T05:05:00.725Z,13.74
2023-05-14T05:10:00.900Z,13.94
2023-05-14T05:15:00.819Z,14.18
2023-05-14T05:20:00.770Z,14.18
2023-05-14T05:25:01.269Z,14.18
2023-05-14T05:30:01.530Z,14.18
2023-05-14T05:35:00.745Z,14.18
2023-05-14T05:40:01.156Z,14.18
2023-05-14T05:45:00.844Z,14.18
2023-05-14T05:50:00.976Z,14.18
2023-05-14T05:55:00.902Z,14.18
2023-05-14T06:00:00.811Z,14.18
2023-05-14T06:05:01.521Z,14.47
2023-05-14T06:10:01.302Z,14.47
2023-05-14T06:15:00.812Z,14.47
2023-05-14T06:20:00.938Z,14.47
2023-05-14T06:25:00.851Z,14.47
2023-05-14T06:30:01.278Z,14.47
2023-05-14T06:35:01.433Z,14.47
2023-05-14T06:40:01.078Z,14.47
2023-05-14T06:45:00.853Z,14.47
2023-05-14T06:50:00.688Z,14.47
2023-05-14T06:55:00.788Z,14.47
2023-05-14T07:00:03.656Z,14.53
2023-05-14T07:05:01.029Z,14.53
2023-05-14T07:10:00.904Z,14.69
2023-05-14T07:15:00.714Z,14.69
2023-05-14T07:20:01.528Z,14.69
2023-05-14T07:25:01.056Z,14.69
2023-05-14T07:30:00.830Z,14.69
2023-05-14T07:35:00.699Z,14.95
2023-05-14T07:40:02.804Z,14.95
2023-05-14T07:45:00.798Z,14.95
2023-05-14T07:50:00.851Z,14.95
2023-05-14T07:55:01.594Z,15.12
2023-05-14T08:00:00.727Z,15.12
2023-05-14T08:05:01.346Z,15.12
2023-05-14T08:10:01.060Z,15.12
2023-05-14T08:15:00.981Z,15.12
2023-05-14T08:20:02.398Z,15.12
2023-05-14T08:25:01.021Z,15.12
2023-05-14T08:30:01.027Z,15.12
2023-05-14T08:35:01.172Z,15.27
2023-05-14T08:40:01.744Z,15.27
2023-05-14T08:45:00.702Z,15.27
2023-05-14T08:50:02.165Z,15.27
2023-05-14T08:55:03.102Z,15.34
2023-05-14T09:00:00.857Z,15.34
2023-05-14T09:05:02.181Z,15.34
2023-05-14T09:10:02.788Z,15.34
2023-05-14T09:15:00.793Z,15.34
2023-05-14T09:20:00.796Z,15.45
2023-05-14T09:25:01.410Z,15.45
2023-05-14T09:30:01.246Z,15.45
2023-05-14T09:35:00.738Z,15.45
2023-05-14T09:40:00.744Z,15.72
2023-05-14T09:45:01.016Z,15.89
2023-05-14T09:50:00.694Z,15.89
2023-05-14T09:55:00.966Z,15.89
2023-05-14T10:00:00.766Z,16.24
2023-05-14T10:05:03.111Z,16.24
2023-05-14T10:10:01.960Z,16.24
2023-05-14T10:15:00.844Z,16.76
2023-05-14T10:20:04.064Z,16.76
2023-05-14T10:25:01.637Z,16.76
2023-05-14T10:30:00.835Z,16.76
2023-05-14T10:35:01.534Z,16.76
2023-05-14T10:40:00.762Z,16.76
2023-05-14T10:45:01.003Z,16.52
2023-05-14T10:50:01.076Z,16.8
2023-05-14T10:55:03.421Z,16.8
2023-05-14T11:00:00.734Z,16.8
2023-05-14T11:05:01.325Z,16.8
2023-05-14T11:10:02.546Z,16.8
2023-05-14T11:15:01.061Z,17.33
2023-05-14T11:20:00.987Z,17.33
2023-05-14T11:25:03.250Z,17.33
2023-05-14T11:30:02.827Z,17.83
2023-05-14T11:35:00.776Z,17.83
2023-05-14T11:40:01.084Z,18.01
2023-05-14T11:45:00.860Z,18.01
2023-05-14T11:50:00.872Z,18.01
2023-05-14T11:55:02.200Z,18.01
2023-05-14T12:00:00.673Z,18.01
2023-05-14T12:05:03.854Z,17.72
2023-05-14T12:10:01.457Z,17.72
2023-05-14T12:15:00.758Z,17.72
2023-05-14T12:20:01.199Z,17.2
2023-05-14T12:25:02.831Z,17.2
2023-05-14T12:30:13.057Z,16.69
2023-05-14T12:35:00.669Z,16.69
2023-05-14T12:40:00.762Z,16.69
2023-05-14T12:45:00.872Z,16.69
2023-05-14T12:50:01.347Z,17.18
2023-05-14T12:55:01.619Z,17.18
2023-05-14T13:00:00.801Z,17.72
2023-05-14T13:05:01.135Z,18.23
2023-05-14T13:10:00.857Z,18.23
2023-05-14T13:15:00.891Z,18.23
2023-05-14T13:20:01.001Z,18.75
2023-05-14T13:25:01.244Z,19.02
2023-05-14T13:30:01.228Z,18.93
2023-05-14T13:35:01.307Z,19.44
2023-05-14T13:40:02.539Z,19.44
2023-05-14T13:45:02.501Z,18.93
2023-05-14T13:50:04.310Z,18.93
2023-05-14T13:55:00.955Z,18.93
2023-05-14T14:00:01.801Z,18.93
2023-05-14T14:05:00.772Z,18.93
2023-05-14T14:10:01.287Z,18.43
2023-05-14T14:15:01.361Z,17.86
2023-05-14T14:20:02.379Z,17.34
2023-05-14T14:25:01.217Z,16.83
2023-05-14T14:30:01.066Z,16.83
2023-05-14T14:35:00.697Z,16.83
2023-05-14T14:40:00.899Z,16.32
2023-05-14T14:45:00.694Z,15.79
2023-05-14T14:50:01.554Z,15.79
2023-05-14T14:55:02.321Z,15.79
2023-05-14T15:00:02.316Z,15.79
2023-05-14T15:05:00.847Z,15.79
2023-05-14T15:10:02.504Z,16.3
2023-05-14T15:15:00.687Z,16.3
2023-05-14T15:20:01.145Z,16.49
2023-05-14T15:25:01.298Z,16.8
2023-05-14T15:30:02.173Z,16.8
2023-05-14T15:35:01.286Z,16.8
2023-05-14T15:40:01.750Z,17.31
2023-05-14T15:45:02.271Z,17.31
2023-05-14T15:50:01.311Z,17.31
2023-05-14T15:55:00.898Z,17.31
2023-05-14T16:00:00.818Z,17.31
2023-05-14T16:05:01.432Z,17.31
2023-05-14T16:10:00.795Z,17.31
2023-05-14T16:15:00.746Z,17.64
2023-05-14T16:20:00.879Z,17.64
2023-05-14T16:25:03.281Z,17.64
2023-05-14T16:30:01.457Z,17.25
2023-05-14T16:35:02.456Z,17.25
2023-05-14T16:40:00.992Z,16.73
2023-05-14T16:45:02.138Z,16.73
2023-05-14T16:50:01.542Z,16.73
2023-05-14T16:55:01.038Z,16.73
2023-05-14T17:00:00.858Z,16.73
2023-05-14T17:05:00.852Z,16.73
2023-05-14T17:10:00.794Z,16.73
2023-05-14T17:15:02.986Z,16.21
2023-05-14T17:20:02.476Z,16.21
2023-05-14T17:25:02.302Z,15.82
2023-05-14T17:30:00.911Z,15.82
2023-05-14T17:35:01.107Z,15.82
2023-05-14T17:40:01.308Z,15.82
2023-05-14T17:45:03.095Z,15.31
2023-05-14T17:50:00.656Z,15.31
2023-05-14T17:55:02.435Z,15.31
2023-05-14T18:00:02.222Z,15.31
2023-05-14T18:05:00.784Z,15.31
2023-05-14T18:10:00.863Z,15.1
2023-05-14T18:15:01.075Z,15.05
2023-05-14T18:20:00.707Z,15.05
2023-05-14T18:25:02.394Z,15.05
2023-05-14T18:30:00.863Z,15.05
2023-05-14T18:35:00.766Z,15.05
2023-05-14T18:40:00.765Z,14.53
2023-05-14T18:45:00.829Z,14.53
2023-05-14T18:50:02.259Z,14.53
2023-05-14T18:55:00.854Z,14.53
2023-05-14T19:00:00.833Z,14.53
2023-05-14T19:05:00.920Z,14.53
2023-05-14T19:10:02.691Z,14.47
2023-05-14T19:15:00.698Z,14.47
2023-05-14T19:20:00.804Z,14.47
2023-05-14T19:25:03.704Z,14.47
2023-05-14T19:30:01.700Z,14.47
2023-05-14T19:35:01.049Z,14.47
2023-05-14T19:40:01.352Z,14.47
2023-05-14T19:45:00.905Z,14.01
2023-05-14T19:50:00.868Z,14.01
2023-05-14T19:55:02.151Z,14.01
2023-05-14T20:00:02.792Z,14.01
2023-05-14T20:05:01.066Z,13.88
2023-05-14T20:10:01.079Z,13.92
2023-05-14T20:15:00.680Z,13.92
2023-05-14T20:20:00.920Z,13.92
2023-05-14T20:25:03.888Z,13.92
2023-05-14T20:30:02.199Z,13.92
2023-05-14T20:35:01.470Z,13.92
2023-05-14T20:40:02.875Z,13.92
2023-05-14T20:45:01.448Z,13.92
2023-05-14T20:50:00.761Z,13.85
2023-05-14T20:55:02.257Z,13.85
2023-05-14T21:00:00.735Z,13.85
2023-05-14T21:05:00.915Z,14.18
2023-05-14T21:10:00.945Z,14.4
2023-05-14T21:15:00.843Z,14.94
2023-05-14T21:20:00.703Z,14.94
2023-05-14T21:25:02.568Z,14.94
2023-05-14T21:30:00.893Z,14.94
2023-05-14T21:35:02.272Z,14.94
2023-05-14T21:40:00.800Z,14.94
2023-05-14T21:45:00.992Z,14.94
2023-05-14T21:50:01.962Z,14.58
2023-05-14T21:55:00.996Z,14.58
2023-05-14T22:00:04.467Z,14.35
2023-05-14T22:05:00.844Z,14.35
2023-05-14T22:10:00.842Z,14.35
2023-05-14T22:15:01.348Z,14.07
2023-05-14T22:20:00.679Z,14.07
2023-05-14T22:25:02.176Z,14.07
2023-05-14T22:30:03.475Z,14.07
2023-05-14T22:35:00.740Z,14.07
2023-05-14T22:40:01.142Z,14.07
2023-05-14T22:45:02.386Z,13.76
2023-05-14T22:50:00.721Z,13.76
2023-05-14T22:55:01.007Z,13.76
2023-05-14T23:00:01.753Z,13.83
2023-05-14T23:05:00.926Z,13.83
2023-05-14T23:10:02.194Z,13.83
2023-05-14T23:15:00.697Z,13.83
2023-05-14T23:20:00.742Z,13.83
2023-05-14T23:25:03.122Z,13.71
2023-05-14T23:30:00.941Z,14.22
2023-05-14T23:35:01.524Z,14.22
2023-05-14T23:40:01.263Z,14.22
2023-05-14T23:45:01.386Z,14.12
2023-05-14T23:50:00.909Z,14.12
2023-05-14T23:55:02.189Z,13.62
